sensor_id;sensor_type;location;lat;lon;timestamp;P1;durP1;ratioP1;P2;durP2;ratioP2
76475;SDS011;65308;50.078;14.854;2022-12-13T00:02:20;21.02;;;8.63;;
76475;SDS011;65308;50.078;14.854;2022-12-13T00:04:46;15.57;;;7.40;;
76475;SDS011;65308;50.078;14.854;2022-12-13T00:07:13;16.10;;;7.75;;
76475;SDS011;65308;50.078;14.854;2022-12-13T00:09:46;18.13;;;8.32;;
76475;SDS011;65308;50.078;14.854;2022-12-13T00:12:12;18.98;;;8.85;;
76475;SDS011;65308;50.078;14.854;2022-12-13T00:14:39;16.52;;;7.78;;
76475;SDS011;65308;50.078;14.854;2022-12-13T00:17:05;17.17;;;7.82;;
76475;SDS011;65308;50.078;14.854;2022-12-13T00:19:33;16.60;;;7.30;;
76475;SDS011;65308;50.078;14.854;2022-12-13T00:22:00;16.50;;;7.55;;
76475;SDS011;65308;50.078;14.854;2022-12-13T00:24:27;18.50;;;7.30;;
76475;SDS011;65308;50.078;14.854;2022-12-13T00:26:53;14.82;;;7.15;;
76475;SDS011;65308;50.078;14.854;2022-12-13T00:29:20;15.63;;;6.95;;
76475;SDS011;65308;50.078;14.854;2022-12-13T00:31:47;16.27;;;7.05;;
76475;SDS011;65308;50.078;14.854;2022-12-13T00:34:14;16.58;;;7.47;;
76475;SDS011;65308;50.078;14.854;2022-12-13T00:36:42;15.38;;;6.93;;
76475;SDS011;65308;50.078;14.854;2022-12-13T00:39:08;17.02;;;6.97;;
76475;SDS011;65308;50.078;14.854;2022-12-13T00:41:37;17.70;;;7.32;;
76475;SDS011;65308;50.078;14.854;2022-12-13T00:44:05;16.90;;;6.85;;
76475;SDS011;65308;50.078;14.854;2022-12-13T00:46:31;17.10;;;7.55;;
76475;SDS011;65308;50.078;14.854;2022-12-13T00:48:59;19.48;;;8.10;;
76475;SDS011;65308;50.078;14.854;2022-12-13T00:51:27;19.63;;;7.82;;
76475;SDS011;65308;50.078;14.854;2022-12-13T00:53:56;16.75;;;7.18;;
76475;SDS011;65308;50.078;14.854;2022-12-13T00:56:24;19.08;;;7.32;;
76475;SDS011;65308;50.078;14.854;2022-12-13T00:58:53;21.23;;;9.40;;
76475;SDS011;65308;50.078;14.854;2022-12-13T01:01:22;19.95;;;8.38;;
76475;SDS011;65308;50.078;14.854;2022-12-13T01:03:51;18.95;;;8.32;;
76475;SDS011;65308;50.078;14.854;2022-12-13T01:06:25;18.75;;;7.03;;
76475;SDS011;65308;50.078;14.854;2022-12-13T01:11:38;18.50;;;7.80;;
76475;SDS011;65308;50.078;14.854;2022-12-13T01:14:05;17.85;;;7.60;;
76475;SDS011;65308;50.078;14.854;2022-12-13T01:16:32;17.25;;;7.40;;
76475;SDS011;65308;50.078;14.854;2022-12-13T01:18:58;19.13;;;7.53;;
76475;SDS011;65308;50.078;14.854;2022-12-13T01:21:25;14.80;;;7.18;;
76475;SDS011;65308;50.078;14.854;2022-12-13T01:23:52;18.77;;;7.57;;
76475;SDS011;65308;50.078;14.854;2022-12-13T01:26:20;18.50;;;7.68;;
76475;SDS011;65308;50.078;14.854;2022-12-13T01:28:48;18.30;;;7.65;;
76475;SDS011;65308;50.078;14.854;2022-12-13T01:31:16;18.00;;;8.05;;
76475;SDS011;65308;50.078;14.854;2022-12-13T01:33:44;23.50;;;9.27;;
76475;SDS011;65308;50.078;14.854;2022-12-13T01:36:12;19.70;;;8.63;;
76475;SDS011;65308;50.078;14.854;2022-12-13T01:38:39;21.13;;;7.88;;
76475;SDS011;65308;50.078;14.854;2022-12-13T01:41:06;17.52;;;8.00;;
76475;SDS011;65308;50.078;14.854;2022-12-13T01:46:17;21.23;;;9.00;;
76475;SDS011;65308;50.078;14.854;2022-12-13T01:48:45;19.83;;;7.80;;
76475;SDS011;65308;50.078;14.854;2022-12-13T01:51:16;19.15;;;7.47;;
76475;SDS011;65308;50.078;14.854;2022-12-13T01:53:46;18.30;;;7.10;;
76475;SDS011;65308;50.078;14.854;2022-12-13T01:56:15;16.65;;;7.45;;
76475;SDS011;65308;50.078;14.854;2022-12-13T01:58:45;25.90;;;10.05;;
76475;SDS011;65308;50.078;14.854;2022-12-13T02:01:15;23.65;;;9.65;;
76475;SDS011;65308;50.078;14.854;2022-12-13T02:03:42;25.05;;;10.07;;
76475;SDS011;65308;50.078;14.854;2022-12-13T02:06:10;22.98;;;8.98;;
76475;SDS011;65308;50.078;14.854;2022-12-13T02:08:41;23.50;;;8.38;;
76475;SDS011;65308;50.078;14.854;2022-12-13T02:11:10;22.42;;;9.27;;
76475;SDS011;65308;50.078;14.854;2022-12-13T02:13:38;21.15;;;7.78;;
76475;SDS011;65308;50.078;14.854;2022-12-13T02:16:07;26.48;;;10.30;;
76475;SDS011;65308;50.078;14.854;2022-12-13T02:18:43;26.52;;;10.40;;
76475;SDS011;65308;50.078;14.854;2022-12-13T02:21:25;21.88;;;9.20;;
76475;SDS011;65308;50.078;14.854;2022-12-13T02:27:12;20.63;;;8.95;;
76475;SDS011;65308;50.078;14.854;2022-12-13T02:32:52;18.67;;;8.40;;
76475;SDS011;65308;50.078;14.854;2022-12-13T02:35:38;19.45;;;7.75;;
76475;SDS011;65308;50.078;14.854;2022-12-13T02:38:10;23.00;;;9.10;;
76475;SDS011;65308;50.078;14.854;2022-12-13T02:40:45;24.95;;;9.40;;
76475;SDS011;65308;50.078;14.854;2022-12-13T02:43:17;20.67;;;8.77;;
76475;SDS011;65308;50.078;14.854;2022-12-13T02:45:52;24.15;;;10.43;;
76475;SDS011;65308;50.078;14.854;2022-12-13T02:48:25;24.90;;;9.52;;
76475;SDS011;65308;50.078;14.854;2022-12-13T02:50:54;20.67;;;9.18;;
76475;SDS011;65308;50.078;14.854;2022-12-13T02:53:23;25.52;;;9.82;;
76475;SDS011;65308;50.078;14.854;2022-12-13T02:55:53;24.25;;;9.63;;
76475;SDS011;65308;50.078;14.854;2022-12-13T02:58:21;21.02;;;8.45;;
76475;SDS011;65308;50.078;14.854;2022-12-13T03:00:53;15.27;;;7.65;;
76475;SDS011;65308;50.078;14.854;2022-12-13T03:03:40;20.23;;;8.50;;
76475;SDS011;65308;50.078;14.854;2022-12-13T03:06:17;16.85;;;7.43;;
76475;SDS011;65308;50.078;14.854;2022-12-13T03:08:58;19.70;;;8.68;;
76475;SDS011;65308;50.078;14.854;2022-12-13T03:11:44;21.70;;;9.10;;
76475;SDS011;65308;50.078;14.854;2022-12-13T03:14:43;22.48;;;9.10;;
76475;SDS011;65308;50.078;14.854;2022-12-13T03:17:18;23.35;;;9.15;;
76475;SDS011;65308;50.078;14.854;2022-12-13T03:19:49;19.63;;;8.25;;
76475;SDS011;65308;50.078;14.854;2022-12-13T03:22:16;20.17;;;8.93;;
76475;SDS011;65308;50.078;14.854;2022-12-13T03:24:43;19.48;;;8.93;;
76475;SDS011;65308;50.078;14.854;2022-12-13T03:27:10;25.98;;;9.77;;
76475;SDS011;65308;50.078;14.854;2022-12-13T03:29:37;22.42;;;8.98;;
76475;SDS011;65308;50.078;14.854;2022-12-13T03:32:04;19.48;;;8.30;;
76475;SDS011;65308;50.078;14.854;2022-12-13T03:34:32;19.15;;;8.23;;
76475;SDS011;65308;50.078;14.854;2022-12-13T03:36:59;21.67;;;8.32;;
76475;SDS011;65308;50.078;14.854;2022-12-13T03:39:26;20.35;;;8.45;;
76475;SDS011;65308;50.078;14.854;2022-12-13T03:41:52;18.08;;;8.52;;
76475;SDS011;65308;50.078;14.854;2022-12-13T03:44:19;19.83;;;7.88;;
76475;SDS011;65308;50.078;14.854;2022-12-13T03:46:46;19.38;;;8.38;;
76475;SDS011;65308;50.078;14.854;2022-12-13T03:49:13;19.42;;;8.45;;
76475;SDS011;65308;50.078;14.854;2022-12-13T03:51:45;18.48;;;8.27;;
76475;SDS011;65308;50.078;14.854;2022-12-13T03:54:12;20.58;;;8.10;;
76475;SDS011;65308;50.078;14.854;2022-12-13T03:56:39;19.42;;;7.53;;
76475;SDS011;65308;50.078;14.854;2022-12-13T03:59:06;22.75;;;9.48;;
76475;SDS011;65308;50.078;14.854;2022-12-13T04:01:32;23.90;;;9.27;;
76475;SDS011;65308;50.078;14.854;2022-12-13T04:03:59;34.83;;;12.55;;
76475;SDS011;65308;50.078;14.854;2022-12-13T04:06:26;25.85;;;10.48;;
76475;SDS011;65308;50.078;14.854;2022-12-13T04:08:57;21.15;;;8.15;;
76475;SDS011;65308;50.078;14.854;2022-12-13T04:14:07;22.70;;;8.32;;
76475;SDS011;65308;50.078;14.854;2022-12-13T04:16:34;24.77;;;9.45;;
76475;SDS011;65308;50.078;14.854;2022-12-13T04:19:00;24.85;;;9.60;;
76475;SDS011;65308;50.078;14.854;2022-12-13T04:21:27;23.73;;;9.80;;
76475;SDS011;65308;50.078;14.854;2022-12-13T04:23:54;22.27;;;8.05;;
76475;SDS011;65308;50.078;14.854;2022-12-13T04:26:22;22.35;;;8.38;;
76475;SDS011;65308;50.078;14.854;2022-12-13T04:28:49;20.20;;;9.00;;
76475;SDS011;65308;50.078;14.854;2022-12-13T04:31:15;23.45;;;9.32;;
76475;SDS011;65308;50.078;14.854;2022-12-13T04:33:42;20.70;;;8.35;;
76475;SDS011;65308;50.078;14.854;2022-12-13T04:36:08;18.50;;;7.93;;
76475;SDS011;65308;50.078;14.854;2022-12-13T04:38:35;19.45;;;7.97;;
76475;SDS011;65308;50.078;14.854;2022-12-13T04:41:03;19.55;;;8.30;;
76475;SDS011;65308;50.078;14.854;2022-12-13T04:43:35;18.23;;;7.60;;
76475;SDS011;65308;50.078;14.854;2022-12-13T04:46:02;19.88;;;7.93;;
76475;SDS011;65308;50.078;14.854;2022-12-13T04:48:29;21.23;;;8.25;;
76475;SDS011;65308;50.078;14.854;2022-12-13T04:50:56;19.33;;;8.20;;
76475;SDS011;65308;50.078;14.854;2022-12-13T04:53:23;22.73;;;8.48;;
76475;SDS011;65308;50.078;14.854;2022-12-13T04:55:49;19.33;;;7.63;;
76475;SDS011;65308;50.078;14.854;2022-12-13T04:58:16;19.08;;;7.57;;
76475;SDS011;65308;50.078;14.854;2022-12-13T05:00:45;20.65;;;7.75;;
76475;SDS011;65308;50.078;14.854;2022-12-13T05:03:11;23.15;;;8.00;;
76475;SDS011;65308;50.078;14.854;2022-12-13T05:05:39;20.63;;;7.40;;
76475;SDS011;65308;50.078;14.854;2022-12-13T05:08:10;21.70;;;7.55;;
76475;SDS011;65308;50.078;14.854;2022-12-13T05:10:37;23.05;;;8.95;;
76475;SDS011;65308;50.078;14.854;2022-12-13T05:13:04;25.50;;;10.45;;
76475;SDS011;65308;50.078;14.854;2022-12-13T05:15:31;23.02;;;10.93;;
76475;SDS011;65308;50.078;14.854;2022-12-13T05:18:00;19.77;;;8.65;;
76475;SDS011;65308;50.078;14.854;2022-12-13T05:20:27;20.08;;;9.10;;
76475;SDS011;65308;50.078;14.854;2022-12-13T05:22:54;17.67;;;7.53;;
76475;SDS011;65308;50.078;14.854;2022-12-13T05:25:24;21.08;;;7.63;;
76475;SDS011;65308;50.078;14.854;2022-12-13T05:28:00;21.02;;;7.78;;
76475;SDS011;65308;50.078;14.854;2022-12-13T05:30:27;20.27;;;8.13;;
76475;SDS011;65308;50.078;14.854;2022-12-13T05:33:34;17.30;;;6.75;;
76475;SDS011;65308;50.078;14.854;2022-12-13T05:36:08;19.80;;;7.55;;
76475;SDS011;65308;50.078;14.854;2022-12-13T05:38:35;18.75;;;7.55;;
76475;SDS011;65308;50.078;14.854;2022-12-13T05:41:05;32.17;;;12.63;;
76475;SDS011;65308;50.078;14.854;2022-12-13T05:43:40;21.30;;;8.82;;
76475;SDS011;65308;50.078;14.854;2022-12-13T05:46:07;23.05;;;9.00;;
76475;SDS011;65308;50.078;14.854;2022-12-13T05:48:35;23.52;;;7.93;;
76475;SDS011;65308;50.078;14.854;2022-12-13T05:51:02;20.52;;;7.68;;
76475;SDS011;65308;50.078;14.854;2022-12-13T05:53:29;22.92;;;8.85;;
76475;SDS011;65308;50.078;14.854;2022-12-13T05:55:57;20.75;;;8.32;;
76475;SDS011;65308;50.078;14.854;2022-12-13T05:58:24;19.58;;;9.43;;
76475;SDS011;65308;50.078;14.854;2022-12-13T06:00:51;22.73;;;8.15;;
76475;SDS011;65308;50.078;14.854;2022-12-13T06:03:18;17.20;;;6.65;;
76475;SDS011;65308;50.078;14.854;2022-12-13T06:05:46;18.92;;;7.15;;
76475;SDS011;65308;50.078;14.854;2022-12-13T06:08:13;12.95;;;5.65;;
76475;SDS011;65308;50.078;14.854;2022-12-13T06:10:40;14.80;;;5.65;;
76475;SDS011;65308;50.078;14.854;2022-12-13T06:13:06;14.75;;;5.50;;
76475;SDS011;65308;50.078;14.854;2022-12-13T06:15:33;16.75;;;6.47;;
76475;SDS011;65308;50.078;14.854;2022-12-13T06:17:59;12.20;;;5.82;;
76475;SDS011;65308;50.078;14.854;2022-12-13T06:20:26;14.45;;;6.25;;
76475;SDS011;65308;50.078;14.854;2022-12-13T06:22:54;12.82;;;5.53;;
76475;SDS011;65308;50.078;14.854;2022-12-13T06:25:21;15.43;;;5.90;;
76475;SDS011;65308;50.078;14.854;2022-12-13T06:27:48;16.00;;;6.57;;
76475;SDS011;65308;50.078;14.854;2022-12-13T06:30:15;15.82;;;6.75;;
76475;SDS011;65308;50.078;14.854;2022-12-13T06:32:42;15.07;;;6.82;;
76475;SDS011;65308;50.078;14.854;2022-12-13T06:35:13;14.68;;;6.43;;
76475;SDS011;65308;50.078;14.854;2022-12-13T06:37:40;15.25;;;6.78;;
76475;SDS011;65308;50.078;14.854;2022-12-13T06:40:09;18.42;;;6.57;;
76475;SDS011;65308;50.078;14.854;2022-12-13T06:42:36;17.00;;;6.57;;
76475;SDS011;65308;50.078;14.854;2022-12-13T06:45:03;13.50;;;6.32;;
76475;SDS011;65308;50.078;14.854;2022-12-13T06:49:57;17.13;;;6.53;;
76475;SDS011;65308;50.078;14.854;2022-12-13T06:52:24;18.13;;;6.78;;
76475;SDS011;65308;50.078;14.854;2022-12-13T06:54:51;15.95;;;5.38;;
76475;SDS011;65308;50.078;14.854;2022-12-13T06:57:19;16.73;;;6.18;;
76475;SDS011;65308;50.078;14.854;2022-12-13T06:59:54;23.83;;;9.75;;
76475;SDS011;65308;50.078;14.854;2022-12-13T07:02:21;24.75;;;10.13;;
76475;SDS011;65308;50.078;14.854;2022-12-13T07:04:48;26.00;;;11.30;;
76475;SDS011;65308;50.078;14.854;2022-12-13T07:07:14;18.23;;;7.53;;
76475;SDS011;65308;50.078;14.854;2022-12-13T07:09:46;16.13;;;6.47;;
76475;SDS011;65308;50.078;14.854;2022-12-13T07:12:13;15.50;;;6.30;;
76475;SDS011;65308;50.078;14.854;2022-12-13T07:14:41;12.75;;;5.30;;
76475;SDS011;65308;50.078;14.854;2022-12-13T07:17:08;16.95;;;6.45;;
76475;SDS011;65308;50.078;14.854;2022-12-13T07:19:35;17.80;;;6.68;;
76475;SDS011;65308;50.078;14.854;2022-12-13T07:22:02;19.02;;;7.15;;
76475;SDS011;65308;50.078;14.854;2022-12-13T07:24:29;17.67;;;6.80;;
76475;SDS011;65308;50.078;14.854;2022-12-13T07:26:56;18.58;;;6.85;;
76475;SDS011;65308;50.078;14.854;2022-12-13T07:29:23;20.38;;;8.18;;
76475;SDS011;65308;50.078;14.854;2022-12-13T07:31:51;17.67;;;7.53;;
76475;SDS011;65308;50.078;14.854;2022-12-13T07:34:19;19.00;;;8.07;;
76475;SDS011;65308;50.078;14.854;2022-12-13T07:36:45;19.35;;;7.93;;
76475;SDS011;65308;50.078;14.854;2022-12-13T07:39:14;18.88;;;8.25;;
76475;SDS011;65308;50.078;14.854;2022-12-13T07:41:41;18.25;;;8.02;;
76475;SDS011;65308;50.078;14.854;2022-12-13T07:44:08;15.55;;;7.38;;
76475;SDS011;65308;50.078;14.854;2022-12-13T07:46:34;15.18;;;7.43;;
76475;SDS011;65308;50.078;14.854;2022-12-13T07:49:03;21.63;;;8.02;;
76475;SDS011;65308;50.078;14.854;2022-12-13T07:51:31;21.85;;;9.15;;
76475;SDS011;65308;50.078;14.854;2022-12-13T07:53:59;15.02;;;8.07;;
76475;SDS011;65308;50.078;14.854;2022-12-13T07:56:26;17.27;;;9.15;;
76475;SDS011;65308;50.078;14.854;2022-12-13T07:58:53;17.98;;;8.60;;
76475;SDS011;65308;50.078;14.854;2022-12-13T08:01:19;22.17;;;9.25;;
76475;SDS011;65308;50.078;14.854;2022-12-13T08:03:47;18.02;;;9.73;;
76475;SDS011;65308;50.078;14.854;2022-12-13T08:06:15;16.48;;;8.38;;
76475;SDS011;65308;50.078;14.854;2022-12-13T08:08:43;18.38;;;9.30;;
76475;SDS011;65308;50.078;14.854;2022-12-13T08:11:10;18.67;;;9.20;;
76475;SDS011;65308;50.078;14.854;2022-12-13T08:13:39;18.52;;;9.00;;
76475;SDS011;65308;50.078;14.854;2022-12-13T08:18:39;19.55;;;9.90;;
76475;SDS011;65308;50.078;14.854;2022-12-13T08:21:07;18.75;;;9.65;;
76475;SDS011;65308;50.078;14.854;2022-12-13T08:23:35;19.15;;;9.80;;
76475;SDS011;65308;50.078;14.854;2022-12-13T08:26:02;19.55;;;9.95;;
76475;SDS011;65308;50.078;14.854;2022-12-13T08:28:30;17.10;;;9.85;;
76475;SDS011;65308;50.078;14.854;2022-12-13T08:31:01;19.75;;;10.55;;
76475;SDS011;65308;50.078;14.854;2022-12-13T08:33:29;19.20;;;10.70;;
76475;SDS011;65308;50.078;14.854;2022-12-13T08:35:55;17.13;;;9.32;;
76475;SDS011;65308;50.078;14.854;2022-12-13T08:38:22;20.77;;;10.27;;
76475;SDS011;65308;50.078;14.854;2022-12-13T08:40:51;22.92;;;13.00;;
76475;SDS011;65308;50.078;14.854;2022-12-13T08:43:18;26.75;;;14.10;;
76475;SDS011;65308;50.078;14.854;2022-12-13T08:45:44;25.15;;;13.55;;
76475;SDS011;65308;50.078;14.854;2022-12-13T08:48:11;22.63;;;13.18;;
76475;SDS011;65308;50.078;14.854;2022-12-13T08:50:38;24.25;;;13.32;;
76475;SDS011;65308;50.078;14.854;2022-12-13T08:53:05;27.42;;;15.05;;
76475;SDS011;65308;50.078;14.854;2022-12-13T08:55:31;30.40;;;16.85;;
76475;SDS011;65308;50.078;14.854;2022-12-13T08:58:03;35.22;;;19.75;;
76475;SDS011;65308;50.078;14.854;2022-12-13T09:00:32;30.88;;;18.27;;
76475;SDS011;65308;50.078;14.854;2022-12-13T09:03:00;28.10;;;16.38;;
76475;SDS011;65308;50.078;14.854;2022-12-13T09:05:27;27.25;;;14.80;;
76475;SDS011;65308;50.078;14.854;2022-12-13T09:07:54;27.60;;;14.15;;
76475;SDS011;65308;50.078;14.854;2022-12-13T09:10:22;28.98;;;14.73;;
76475;SDS011;65308;50.078;14.854;2022-12-13T09:12:50;28.63;;;14.40;;
76475;SDS011;65308;50.078;14.854;2022-12-13T09:15:20;29.65;;;15.13;;
76475;SDS011;65308;50.078;14.854;2022-12-13T09:17:46;29.45;;;14.57;;
76475;SDS011;65308;50.078;14.854;2022-12-13T09:20:13;30.33;;;15.48;;
76475;SDS011;65308;50.078;14.854;2022-12-13T09:22:40;28.55;;;15.50;;
76475;SDS011;65308;50.078;14.854;2022-12-13T09:25:07;31.98;;;15.25;;
76475;SDS011;65308;50.078;14.854;2022-12-13T09:27:35;29.65;;;13.88;;
76475;SDS011;65308;50.078;14.854;2022-12-13T09:30:01;27.25;;;14.85;;
76475;SDS011;65308;50.078;14.854;2022-12-13T09:32:38;29.85;;;14.70;;
76475;SDS011;65308;50.078;14.854;2022-12-13T09:35:06;28.70;;;15.00;;
76475;SDS011;65308;50.078;14.854;2022-12-13T09:37:33;32.53;;;15.73;;
76475;SDS011;65308;50.078;14.854;2022-12-13T09:40:00;30.63;;;15.57;;
76475;SDS011;65308;50.078;14.854;2022-12-13T09:42:27;31.58;;;14.75;;
76475;SDS011;65308;50.078;14.854;2022-12-13T09:44:56;26.23;;;13.65;;
76475;SDS011;65308;50.078;14.854;2022-12-13T09:47:27;27.02;;;14.02;;
76475;SDS011;65308;50.078;14.854;2022-12-13T09:49:58;27.10;;;13.32;;
76475;SDS011;65308;50.078;14.854;2022-12-13T09:52:27;29.88;;;13.02;;
76475;SDS011;65308;50.078;14.854;2022-12-13T09:54:59;30.48;;;15.98;;
76475;SDS011;65308;50.078;14.854;2022-12-13T09:57:27;30.48;;;15.25;;
76475;SDS011;65308;50.078;14.854;2022-12-13T09:59:55;28.20;;;15.15;;
76475;SDS011;65308;50.078;14.854;2022-12-13T10:02:28;29.58;;;14.90;;
76475;SDS011;65308;50.078;14.854;2022-12-13T10:05:00;26.80;;;15.65;;
76475;SDS011;65308;50.078;14.854;2022-12-13T10:07:41;29.95;;;15.10;;
76475;SDS011;65308;50.078;14.854;2022-12-13T10:10:10;27.42;;;13.95;;
76475;SDS011;65308;50.078;14.854;2022-12-13T10:12:41;24.70;;;13.95;;
76475;SDS011;65308;50.078;14.854;2022-12-13T10:17:37;23.75;;;12.50;;
76475;SDS011;65308;50.078;14.854;2022-12-13T10:20:11;27.42;;;13.90;;
76475;SDS011;65308;50.078;14.854;2022-12-13T10:22:53;27.83;;;13.95;;
76475;SDS011;65308;50.078;14.854;2022-12-13T10:28:10;28.00;;;15.35;;
76475;SDS011;65308;50.078;14.854;2022-12-13T10:30:38;28.08;;;14.80;;
76475;SDS011;65308;50.078;14.854;2022-12-13T10:33:09;26.95;;;13.77;;
76475;SDS011;65308;50.078;14.854;2022-12-13T10:36:00;26.75;;;13.93;;
76475;SDS011;65308;50.078;14.854;2022-12-13T10:38:29;25.25;;;14.25;;
76475;SDS011;65308;50.078;14.854;2022-12-13T10:40:59;28.42;;;14.60;;
76475;SDS011;65308;50.078;14.854;2022-12-13T10:43:26;28.83;;;15.60;;
76475;SDS011;65308;50.078;14.854;2022-12-13T10:45:58;25.13;;;14.55;;
76475;SDS011;65308;50.078;14.854;2022-12-13T10:48:37;24.73;;;13.95;;
76475;SDS011;65308;50.078;14.854;2022-12-13T10:51:14;28.33;;;14.15;;
76475;SDS011;65308;50.078;14.854;2022-12-13T10:53:44;23.33;;;13.73;;
76475;SDS011;65308;50.078;14.854;2022-12-13T10:56:13;27.80;;;14.75;;
76475;SDS011;65308;50.078;14.854;2022-12-13T10:58:43;26.65;;;14.32;;
76475;SDS011;65308;50.078;14.854;2022-12-13T11:01:19;26.48;;;13.82;;
76475;SDS011;65308;50.078;14.854;2022-12-13T11:03:54;23.52;;;12.45;;
76475;SDS011;65308;50.078;14.854;2022-12-13T11:06:25;21.25;;;12.98;;
76475;SDS011;65308;50.078;14.854;2022-12-13T11:08:53;26.65;;;13.20;;
76475;SDS011;65308;50.078;14.854;2022-12-13T11:11:26;23.17;;;13.15;;
76475;SDS011;65308;50.078;14.854;2022-12-13T11:13:55;24.25;;;12.90;;
76475;SDS011;65308;50.078;14.854;2022-12-13T11:16:26;22.30;;;12.38;;
76475;SDS011;65308;50.078;14.854;2022-12-13T11:18:55;26.00;;;12.55;;
76475;SDS011;65308;50.078;14.854;2022-12-13T11:21:27;23.20;;;12.27;;
76475;SDS011;65308;50.078;14.854;2022-12-13T11:24:00;22.30;;;12.30;;
76475;SDS011;65308;50.078;14.854;2022-12-13T11:26:30;22.48;;;12.50;;
76475;SDS011;65308;50.078;14.854;2022-12-13T11:29:12;26.13;;;14.13;;
76475;SDS011;65308;50.078;14.854;2022-12-13T11:31:53;20.55;;;11.90;;
76475;SDS011;65308;50.078;14.854;2022-12-13T11:34:29;21.38;;;12.15;;
76475;SDS011;65308;50.078;14.854;2022-12-13T11:37:10;26.08;;;15.77;;
76475;SDS011;65308;50.078;14.854;2022-12-13T11:42:17;79.78;;;37.97;;
76475;SDS011;65308;50.078;14.854;2022-12-13T11:44:53;34.25;;;18.75;;
76475;SDS011;65308;50.078;14.854;2022-12-13T11:47:26;22.77;;;12.32;;
76475;SDS011;65308;50.078;14.854;2022-12-13T11:49:59;23.50;;;11.93;;
76475;SDS011;65308;50.078;14.854;2022-12-13T11:52:30;25.67;;;13.05;;
76475;SDS011;65308;50.078;14.854;2022-12-13T11:55:07;25.27;;;13.95;;
76475;SDS011;65308;50.078;14.854;2022-12-13T11:57:42;26.35;;;13.70;;
76475;SDS011;65308;50.078;14.854;2022-12-13T12:00:20;22.77;;;11.60;;
76475;SDS011;65308;50.078;14.854;2022-12-13T12:09:39;31.10;;;13.90;;
76475;SDS011;65308;50.078;14.854;2022-12-13T12:12:10;26.33;;;13.70;;
76475;SDS011;65308;50.078;14.854;2022-12-13T12:14:40;25.90;;;14.07;;
76475;SDS011;65308;50.078;14.854;2022-12-13T12:17:12;28.60;;;14.02;;
76475;SDS011;65308;50.078;14.854;2022-12-13T12:19:41;28.80;;;13.60;;
76475;SDS011;65308;50.078;14.854;2022-12-13T12:22:14;29.45;;;14.55;;
76475;SDS011;65308;50.078;14.854;2022-12-13T12:24:56;34.47;;;16.73;;
76475;SDS011;65308;50.078;14.854;2022-12-13T12:27:34;38.20;;;18.38;;
76475;SDS011;65308;50.078;14.854;2022-12-13T12:30:15;31.52;;;16.60;;
76475;SDS011;65308;50.078;14.854;2022-12-13T12:32:47;32.95;;;15.85;;
76475;SDS011;65308;50.078;14.854;2022-12-13T12:35:30;30.45;;;15.05;;
76475;SDS011;65308;50.078;14.854;2022-12-13T12:38:13;26.58;;;13.60;;
76475;SDS011;65308;50.078;14.854;2022-12-13T12:41:01;31.95;;;14.63;;
76475;SDS011;65308;50.078;14.854;2022-12-13T12:43:46;30.73;;;14.50;;
76475;SDS011;65308;50.078;14.854;2022-12-13T12:46:26;27.10;;;13.40;;
76475;SDS011;65308;50.078;14.854;2022-12-13T12:52:16;28.00;;;13.30;;
76475;SDS011;65308;50.078;14.854;2022-12-13T12:54:50;26.92;;;14.00;;
76475;SDS011;65308;50.078;14.854;2022-12-13T12:57:30;27.80;;;13.82;;
76475;SDS011;65308;50.078;14.854;2022-12-13T13:00:11;28.10;;;13.38;;
76475;SDS011;65308;50.078;14.854;2022-12-13T13:02:42;27.00;;;13.02;;
76475;SDS011;65308;50.078;14.854;2022-12-13T13:05:15;24.70;;;12.95;;
76475;SDS011;65308;50.078;14.854;2022-12-13T13:07:46;27.77;;;13.60;;
76475;SDS011;65308;50.078;14.854;2022-12-13T13:10:18;28.40;;;13.05;;
76475;SDS011;65308;50.078;14.854;2022-12-13T13:12:46;27.38;;;13.20;;
76475;SDS011;65308;50.078;14.854;2022-12-13T13:17:58;29.33;;;13.73;;
76475;SDS011;65308;50.078;14.854;2022-12-13T13:20:26;30.05;;;13.55;;
76475;SDS011;65308;50.078;14.854;2022-12-13T13:22:55;26.65;;;13.57;;
76475;SDS011;65308;50.078;14.854;2022-12-13T13:25:27;24.25;;;12.02;;
76475;SDS011;65308;50.078;14.854;2022-12-13T13:28:04;25.33;;;12.70;;
76475;SDS011;65308;50.078;14.854;2022-12-13T13:30:38;25.95;;;12.75;;
76475;SDS011;65308;50.078;14.854;2022-12-13T13:33:40;25.77;;;12.15;;
76475;SDS011;65308;50.078;14.854;2022-12-13T13:36:09;24.80;;;11.20;;
76475;SDS011;65308;50.078;14.854;2022-12-13T13:39:13;25.90;;;12.30;;
76475;SDS011;65308;50.078;14.854;2022-12-13T13:41:53;28.42;;;13.20;;
76475;SDS011;65308;50.078;14.854;2022-12-13T13:47:42;35.38;;;17.85;;
76475;SDS011;65308;50.078;14.854;2022-12-13T13:50:19;31.42;;;14.90;;
76475;SDS011;65308;50.078;14.854;2022-12-13T13:52:56;26.58;;;13.20;;
76475;SDS011;65308;50.078;14.854;2022-12-13T13:55:46;42.88;;;20.30;;
76475;SDS011;65308;50.078;14.854;2022-12-13T13:58:48;32.47;;;15.82;;
76475;SDS011;65308;50.078;14.854;2022-12-13T14:01:46;28.65;;;13.30;;
76475;SDS011;65308;50.078;14.854;2022-12-13T14:05:03;27.77;;;13.48;;
76475;SDS011;65308;50.078;14.854;2022-12-13T14:08:01;27.55;;;13.07;;
76475;SDS011;65308;50.078;14.854;2022-12-13T14:10:48;31.52;;;14.18;;
76475;SDS011;65308;50.078;14.854;2022-12-13T14:13:27;36.95;;;15.40;;
76475;SDS011;65308;50.078;14.854;2022-12-13T14:16:27;33.60;;;14.65;;
76475;SDS011;65308;50.078;14.854;2022-12-13T14:22:38;31.90;;;14.38;;
76475;SDS011;65308;50.078;14.854;2022-12-13T14:25:16;31.40;;;13.52;;
76475;SDS011;65308;50.078;14.854;2022-12-13T14:27:52;32.70;;;14.30;;
76475;SDS011;65308;50.078;14.854;2022-12-13T14:30:23;32.38;;;14.38;;
76475;SDS011;65308;50.078;14.854;2022-12-13T14:32:51;37.55;;;16.63;;
76475;SDS011;65308;50.078;14.854;2022-12-13T14:35:23;46.50;;;18.83;;
76475;SDS011;65308;50.078;14.854;2022-12-13T14:40:23;30.65;;;14.85;;
76475;SDS011;65308;50.078;14.854;2022-12-13T14:42:52;40.60;;;17.50;;
76475;SDS011;65308;50.078;14.854;2022-12-13T14:45:20;35.30;;;16.45;;
76475;SDS011;65308;50.078;14.854;2022-12-13T14:47:48;33.22;;;15.23;;
76475;SDS011;65308;50.078;14.854;2022-12-13T14:50:16;39.05;;;15.60;;
76475;SDS011;65308;50.078;14.854;2022-12-13T14:52:45;72.40;;;28.27;;
76475;SDS011;65308;50.078;14.854;2022-12-13T14:55:20;53.05;;;21.60;;
76475;SDS011;65308;50.078;14.854;2022-12-13T14:57:50;44.65;;;18.23;;
76475;SDS011;65308;50.078;14.854;2022-12-13T15:00:22;46.72;;;19.15;;
76475;SDS011;65308;50.078;14.854;2022-12-13T15:02:52;42.97;;;18.08;;
76475;SDS011;65308;50.078;14.854;2022-12-13T15:05:24;42.17;;;16.10;;
76475;SDS011;65308;50.078;14.854;2022-12-13T15:07:53;28.63;;;13.35;;
76475;SDS011;65308;50.078;14.854;2022-12-13T15:10:21;34.45;;;13.98;;
76475;SDS011;65308;50.078;14.854;2022-12-13T15:12:52;38.05;;;17.05;;
76475;SDS011;65308;50.078;14.854;2022-12-13T15:15:21;33.70;;;16.70;;
76475;SDS011;65308;50.078;14.854;2022-12-13T15:18:03;33.88;;;14.65;;
76475;SDS011;65308;50.078;14.854;2022-12-13T15:23:01;28.48;;;11.82;;
76475;SDS011;65308;50.078;14.854;2022-12-13T15:25:31;30.15;;;11.80;;
76475;SDS011;65308;50.078;14.854;2022-12-13T15:27:59;26.88;;;11.52;;
76475;SDS011;65308;50.078;14.854;2022-12-13T15:30:26;31.50;;;11.65;;